createdAt,value
2018-06-02T00:00:19.531Z,7.80
2018-06-02T00:02:47.546Z,7.33
2018-06-02T00:05:15.158Z,8.30
2018-06-02T00:07:42.796Z,7.53
2018-06-02T00:10:10.463Z,7.63
2018-06-02T00:12:38.742Z,8.93
2018-06-02T00:15:07.563Z,8.00
2018-06-02T00:17:35.584Z,10.73
2018-06-02T00:20:03.254Z,9.50
2018-06-02T00:22:30.884Z,12.13
2018-06-02T00:24:58.496Z,10.90
2018-06-02T00:27:26.140Z,9.50
2018-06-02T00:29:53.724Z,9.20
2018-06-02T00:32:21.363Z,9.67
2018-06-02T00:34:49.218Z,9.10
2018-06-02T00:37:16.841Z,12.93
2018-06-02T00:39:44.453Z,14.73
2018-06-02T00:42:12.916Z,18.00
2018-06-02T00:44:40.540Z,10.60
2018-06-02T00:47:08.147Z,9.30
2018-06-02T00:49:35.830Z,12.20
2018-06-02T00:52:04.214Z,9.13
2018-06-02T00:54:43.729Z,9.70
2018-06-02T00:57:13.016Z,8.30
2018-06-02T00:59:40.649Z,8.20
2018-06-02T01:02:08.240Z,7.43
2018-06-02T01:04:35.863Z,12.20
2018-06-02T01:07:03.890Z,9.53
2018-06-02T01:09:31.493Z,7.30
2018-06-02T01:11:59.505Z,9.97
2018-06-02T01:14:27.190Z,8.80
2018-06-02T01:16:54.852Z,9.60
2018-06-02T01:19:23.322Z,8.90
2018-06-02T01:21:50.946Z,9.20
2018-06-02T01:24:18.604Z,9.20
2018-06-02T01:26:46.246Z,9.43
2018-06-02T01:29:15.007Z,10.60
2018-06-02T01:31:43.396Z,8.30
2018-06-02T01:34:10.992Z,7.50
2018-06-02T01:36:38.569Z,12.13
2018-06-02T01:39:06.456Z,10.17
2018-06-02T01:41:34.061Z,9.20
2018-06-02T01:44:02.124Z,10.63
2018-06-02T01:46:31.015Z,9.23
2018-06-02T01:48:58.700Z,8.87
2018-06-02T01:51:26.370Z,7.90
2018-06-02T01:53:53.988Z,10.73
2018-06-02T01:58:55.537Z,10.10
2018-06-02T02:01:23.171Z,11.97
2018-06-02T02:03:50.759Z,10.23
2018-06-02T02:06:18.614Z,8.17
2018-06-02T02:08:47.222Z,9.40
2018-06-02T02:11:15.970Z,11.37
2018-06-02T02:13:43.556Z,8.77
2018-06-02T02:16:11.199Z,15.07
2018-06-02T02:18:38.810Z,7.63
2018-06-02T02:21:06.665Z,10.03
2018-06-02T02:23:35.117Z,9.63
2018-06-02T02:26:03.507Z,11.63
2018-06-02T02:28:31.081Z,9.50
2018-06-02T02:30:59.614Z,9.10
2018-06-02T02:33:27.563Z,9.97
2018-06-02T02:35:55.184Z,8.20
2018-06-02T02:38:23.282Z,7.97
2018-06-02T02:40:51.617Z,10.97
2018-06-02T02:43:20.197Z,14.43
2018-06-02T02:45:49.080Z,12.53
2018-06-02T02:50:50.715Z,9.00
2018-06-02T02:53:18.763Z,11.23
2018-06-02T02:55:46.921Z,12.37
2018-06-02T02:58:15.082Z,9.70
2018-06-02T03:00:42.682Z,9.00
2018-06-02T03:03:10.311Z,8.70
2018-06-02T03:05:37.907Z,8.70
2018-06-02T03:08:06.239Z,11.57
2018-06-02T03:10:34.733Z,8.63
2018-06-02T03:13:02.404Z,12.43
2018-06-02T03:15:30.743Z,12.73
2018-06-02T03:17:59.175Z,9.80
2018-06-02T03:20:26.968Z,9.70
2018-06-02T03:22:56.277Z,11.03
2018-06-02T03:25:23.949Z,10.00
2018-06-02T03:27:51.541Z,11.10
2018-06-02T03:30:19.778Z,13.57
2018-06-02T03:32:47.390Z,10.57
2018-06-02T03:35:15.217Z,11.23
2018-06-02T03:37:42.825Z,13.63
2018-06-02T03:40:10.464Z,10.83
2018-06-02T03:42:38.052Z,12.33
2018-06-02T03:45:05.638Z,12.87
2018-06-02T03:47:33.280Z,11.77
2018-06-02T03:50:01.277Z,11.40
2018-06-02T03:52:28.878Z,11.97
2018-06-02T03:54:56.491Z,14.47
2018-06-02T03:57:24.103Z,13.70
2018-06-02T03:59:51.741Z,9.70
2018-06-02T04:02:20.427Z,12.00
2018-06-02T04:04:48.029Z,9.13
2018-06-02T04:07:15.660Z,11.10
2018-06-02T04:09:43.294Z,10.60
2018-06-02T04:12:10.946Z,14.70
2018-06-02T04:14:38.602Z,10.40
2018-06-02T04:17:06.227Z,10.27
2018-06-02T04:19:33.908Z,10.90
2018-06-02T04:22:01.916Z,11.80
2018-06-02T04:24:29.628Z,8.30
2018-06-02T04:26:57.305Z,10.13
2018-06-02T04:29:24.963Z,8.60
2018-06-02T04:31:53.065Z,7.70
2018-06-02T04:34:20.699Z,8.90
2018-06-02T04:36:48.762Z,9.10
2018-06-02T04:39:16.391Z,8.33
2018-06-02T04:41:44.010Z,20.43
2018-06-02T04:44:12.019Z,8.70
2018-06-02T04:46:39.621Z,13.13
2018-06-02T04:49:07.642Z,11.17
2018-06-02T04:51:35.266Z,15.37
2018-06-02T04:54:03.325Z,11.77
2018-06-02T04:56:31.834Z,8.60
2018-06-02T04:58:59.454Z,10.43
2018-06-02T05:01:27.112Z,9.43
2018-06-02T05:03:55.210Z,13.40
2018-06-02T05:06:23.218Z,18.13
2018-06-02T05:08:50.866Z,10.07
2018-06-02T05:11:18.498Z,12.70
2018-06-02T05:13:46.518Z,8.23
2018-06-02T05:16:14.213Z,10.40
2018-06-02T05:18:41.908Z,13.73
2018-06-02T05:21:10.034Z,12.03
2018-06-02T05:23:37.688Z,14.00
2018-06-02T05:26:05.299Z,10.70
2018-06-02T05:28:33.369Z,10.53
2018-06-02T05:31:01.469Z,11.00
2018-06-02T05:33:29.114Z,11.30
2018-06-02T05:35:57.208Z,9.70
2018-06-02T05:38:24.977Z,10.17
2018-06-02T05:40:52.661Z,11.43
2018-06-02T05:43:20.322Z,10.17
2018-06-02T05:45:47.964Z,11.93
2018-06-02T05:48:15.602Z,11.77
2018-06-02T05:53:17.093Z,10.17
2018-06-02T05:55:44.760Z,9.33
2018-06-02T05:58:12.477Z,11.20
2018-06-02T06:00:40.050Z,10.07
2018-06-02T06:03:07.716Z,10.00
2018-06-02T06:05:35.434Z,14.80
2018-06-02T06:08:03.124Z,13.83
2018-06-02T06:10:31.175Z,11.40
2018-06-02T06:12:58.841Z,10.40
2018-06-02T06:15:26.487Z,10.13
2018-06-02T06:17:54.091Z,9.23
2018-06-02T06:20:22.202Z,8.33
2018-06-02T06:22:49.822Z,13.20
2018-06-02T06:25:17.891Z,9.33
2018-06-02T06:27:45.972Z,7.87
2018-06-02T06:30:13.630Z,10.53
2018-06-02T06:32:41.306Z,18.57
2018-06-02T06:35:09.014Z,11.60
2018-06-02T06:37:36.673Z,9.23
2018-06-02T06:40:04.292Z,11.10
2018-06-02T06:42:31.996Z,8.53
2018-06-02T06:44:59.660Z,11.23
2018-06-02T06:47:28.333Z,11.10
2018-06-02T06:49:56.004Z,10.10
2018-06-02T06:52:23.667Z,9.87
2018-06-02T06:54:51.308Z,11.63
2018-06-02T06:57:18.984Z,10.80
2018-06-02T06:59:46.635Z,11.27
2018-06-02T07:02:14.307Z,12.67
2018-06-02T07:04:41.952Z,9.83
2018-06-02T07:07:09.610Z,12.07
2018-06-02T07:09:37.318Z,15.13
2018-06-02T07:12:05.009Z,12.77
2018-06-02T07:14:32.654Z,11.80
2018-06-02T07:17:00.682Z,11.67
2018-06-02T07:19:30.424Z,12.43
2018-06-02T07:21:58.241Z,12.20
2018-06-02T07:24:25.949Z,11.93
2018-06-02T07:26:53.611Z,10.27
2018-06-02T07:31:55.381Z,11.00
2018-06-02T07:34:23.046Z,14.90
2018-06-02T07:36:50.720Z,12.93
2018-06-02T07:39:18.676Z,14.23
2018-06-02T07:41:49.762Z,12.93
2018-06-02T07:44:17.375Z,16.03
2018-06-02T07:46:44.945Z,13.20
2018-06-02T07:49:13.129Z,13.90
2018-06-02T07:51:44.552Z,13.10
2018-06-02T07:54:13.026Z,14.10
2018-06-02T08:05:21.793Z,16.23
2018-06-02T08:07:52.360Z,11.57
2018-06-02T08:10:24.800Z,11.00
2018-06-02T08:15:54.126Z,13.17
2018-06-02T08:18:23.895Z,11.27
2018-06-02T08:20:54.139Z,13.30
2018-06-02T08:23:21.760Z,9.13
2018-06-02T08:25:49.827Z,12.27
2018-06-02T08:28:17.542Z,15.10
2018-06-02T08:30:46.316Z,9.80
2018-06-02T08:33:17.708Z,9.70
2018-06-02T08:35:48.767Z,10.30
2018-06-02T08:38:22.219Z,11.47
2018-06-02T08:40:55.944Z,11.63
2018-06-02T08:43:30.678Z,11.00
2018-06-02T08:48:52.773Z,11.27
2018-06-02T08:51:20.642Z,12.87
2018-06-02T08:56:31.077Z,10.70
2018-06-02T08:59:16.936Z,11.60
2018-06-02T09:01:47.080Z,10.57
2018-06-02T09:04:21.967Z,11.60
2018-06-02T09:07:08.303Z,11.30
2018-06-02T09:09:38.608Z,12.53
2018-06-02T09:42:24.230Z,9.20
2018-06-02T09:44:51.814Z,9.57
2018-06-02T09:56:11.545Z,7.83
2018-06-02T10:01:12.870Z,8.33
2018-06-02T10:03:40.528Z,6.73
2018-06-02T10:06:08.273Z,7.90
2018-06-02T10:20:42.919Z,14.67
2018-06-02T10:29:17.906Z,10.33
2018-06-02T10:31:46.286Z,6.47
2018-06-02T10:34:14.050Z,6.47
2018-06-02T10:36:42.126Z,6.03
2018-06-02T10:39:10.567Z,6.50
2018-06-02T10:41:38.196Z,9.93
2018-06-02T10:44:06.185Z,8.73
2018-06-02T10:46:34.573Z,4.90
2018-06-02T10:49:05.835Z,5.60
2018-06-02T10:51:43.497Z,9.20
2018-06-02T10:54:14.159Z,6.37
2018-06-02T10:56:42.532Z,8.73
2018-06-02T10:59:10.614Z,5.73
2018-06-02T11:04:14.210Z,6.77
2018-06-02T11:06:41.840Z,7.20
2018-06-02T11:09:09.915Z,8.00
2018-06-02T11:11:37.569Z,7.17
2018-06-02T11:14:06.560Z,6.13
2018-06-02T11:16:34.503Z,5.83
2018-06-02T11:19:03.259Z,6.90
2018-06-02T11:21:33.246Z,7.43
2018-06-02T11:24:01.277Z,6.17
2018-06-02T11:26:28.980Z,6.53
2018-06-02T11:28:56.644Z,6.10
2018-06-02T11:31:25.314Z,6.30
2018-06-02T11:33:53.427Z,7.83
2018-06-02T11:36:21.071Z,6.13
2018-06-02T11:38:51.208Z,5.30
2018-06-02T11:41:18.822Z,5.23
2018-06-02T11:43:47.103Z,3.90
2018-06-02T11:46:35.005Z,4.13
2018-06-02T11:55:40.448Z,6.73
2018-06-02T11:58:46.678Z,4.03
2018-06-02T12:01:29.832Z,5.47
2018-06-02T12:03:58.333Z,5.57
2018-06-02T12:06:31.333Z,5.53
2018-06-02T12:11:50.604Z,7.00
2018-06-02T12:17:21.201Z,5.30
2018-06-02T12:20:00.234Z,5.07
2018-06-02T12:25:45.051Z,5.20
2018-06-02T14:03:32.908Z,3.57
2018-06-02T14:06:22.837Z,2.97
2018-06-02T14:08:50.516Z,2.47
2018-06-02T14:49:37.436Z,3.40
2018-06-02T17:35:53.506Z,5.20
2018-06-02T17:38:29.105Z,2.80
2018-06-02T17:44:17.400Z,3.13
2018-06-02T17:46:54.527Z,2.90
2018-06-02T17:49:28.292Z,3.03
2018-06-02T17:57:26.016Z,13.00
2018-06-02T17:59:57.585Z,3.87
2018-06-02T18:02:36.115Z,4.20
2018-06-02T18:15:46.136Z,4.30
2018-06-02T18:18:25.121Z,7.00
2018-06-02T18:21:06.569Z,4.40
2018-06-02T18:26:24.710Z,4.50
2018-06-02T18:35:01.737Z,4.07
2018-06-02T18:37:59.720Z,4.30
2018-06-02T18:40:51.037Z,3.27
2018-06-02T18:46:28.064Z,4.13
2018-06-02T18:49:09.553Z,4.20
2018-06-02T18:51:44.024Z,4.67
2018-06-02T19:21:26.744Z,5.40
2018-06-02T19:23:55.584Z,6.70
2018-06-02T19:26:23.179Z,4.77
2018-06-02T19:28:57.147Z,5.33
2018-06-02T19:31:25.243Z,4.40
2018-06-02T19:33:53.383Z,5.07
2018-06-02T19:36:21.311Z,6.17
2018-06-02T19:38:48.912Z,5.43
2018-06-02T19:41:16.798Z,6.47
2018-06-02T19:43:44.855Z,5.60
2018-06-02T19:46:12.937Z,6.67
2018-06-02T19:48:41.152Z,5.15
2018-06-02T19:51:08.908Z,8.77
2018-06-02T19:53:36.645Z,6.83
2018-06-02T19:56:04.450Z,5.70
2018-06-02T19:58:37.292Z,5.90
2018-06-02T20:01:15.506Z,6.60
2018-06-02T20:03:46.845Z,5.90
2018-06-02T20:06:17.511Z,6.70
2018-06-02T20:08:47.499Z,8.13
2018-06-02T20:11:15.752Z,6.70
2018-06-02T20:13:43.614Z,7.07
2018-06-02T20:16:18.404Z,7.30
2018-06-02T20:18:50.977Z,7.33
2018-06-02T20:21:37.029Z,9.67
2018-06-02T20:24:06.425Z,7.50
2018-06-02T20:32:12.407Z,7.80
2018-06-02T20:34:44.210Z,9.30
2018-06-02T20:37:18.968Z,6.47
2018-06-02T20:39:47.207Z,5.90
2018-06-02T20:42:24.628Z,8.20
2018-06-02T20:44:57.643Z,7.87
2018-06-02T20:47:29.319Z,6.20
2018-06-02T20:49:56.943Z,7.30
2018-06-02T20:52:31.279Z,7.27
2018-06-02T20:55:00.688Z,7.23
2018-06-02T20:57:28.432Z,6.27
2018-06-02T20:59:56.121Z,6.90
2018-06-02T21:05:15.257Z,6.63
2018-06-02T21:07:42.948Z,6.57
2018-06-02T21:10:30.723Z,11.07
2018-06-02T21:13:01.035Z,7.40
2018-06-02T21:15:33.438Z,9.05
2018-06-02T21:18:03.255Z,6.90
2018-06-02T21:20:33.241Z,8.10
2018-06-02T21:23:01.250Z,8.85
2018-06-02T21:25:30.507Z,8.55
2018-06-02T21:28:04.472Z,9.40
2018-06-02T21:30:36.379Z,8.87
2018-06-02T21:33:08.596Z,8.50
2018-06-02T21:35:36.243Z,11.47
2018-06-02T21:38:07.025Z,10.05
2018-06-02T21:40:37.910Z,9.07
2018-06-02T21:43:05.831Z,8.63
2018-06-02T21:45:33.411Z,9.37
2018-06-02T21:48:01.133Z,9.70
2018-06-02T21:50:29.905Z,9.73
2018-06-02T21:52:57.724Z,9.60
2018-06-02T21:55:27.599Z,11.47
2018-06-02T21:57:55.470Z,11.70
2018-06-02T22:00:23.278Z,10.67
2018-06-02T22:02:50.884Z,9.57
2018-06-02T22:05:19.139Z,9.80
2018-06-02T22:07:47.609Z,10.00
2018-06-02T22:10:15.629Z,12.73
2018-06-02T22:12:45.557Z,10.50
2018-06-02T22:15:13.137Z,11.40
2018-06-02T22:17:40.794Z,10.37
2018-06-02T22:20:08.830Z,11.03
2018-06-02T22:22:37.308Z,10.77
2018-06-02T22:25:04.893Z,10.53
2018-06-02T22:27:32.476Z,10.50
2018-06-02T22:30:01.761Z,9.40
2018-06-02T22:32:29.332Z,10.27
2018-06-02T22:34:58.579Z,9.43
2018-06-02T22:37:28.961Z,9.77
2018-06-02T22:39:56.927Z,9.93
2018-06-02T22:42:24.701Z,9.60
2018-06-02T22:44:52.634Z,10.50
2018-06-02T22:47:21.107Z,10.27
2018-06-02T22:49:48.719Z,12.00
2018-06-02T22:52:17.438Z,10.80
2018-06-02T22:54:44.997Z,10.30
2018-06-02T22:57:12.583Z,10.50
2018-06-02T22:59:40.543Z,10.45
2018-06-02T23:02:08.183Z,10.23
2018-06-02T23:04:37.151Z,11.37
2018-06-02T23:07:07.915Z,10.83
2018-06-02T23:09:48.187Z,10.60
2018-06-02T23:12:16.001Z,11.07
2018-06-02T23:14:44.030Z,10.03
2018-06-02T23:17:12.394Z,13.73
2018-06-02T23:19:41.790Z,11.40
2018-06-02T23:22:09.697Z,13.73
2018-06-02T23:24:37.777Z,12.53
2018-06-02T23:27:05.887Z,11.33
2018-06-02T23:29:34.430Z,12.37
2018-06-02T23:32:02.515Z,12.17
2018-06-02T23:34:30.711Z,12.27
2018-06-02T23:37:00.021Z,12.07
2018-06-02T23:39:28.239Z,17.60
2018-06-02T23:42:05.799Z,13.37
2018-06-02T23:44:33.891Z,13.47
2018-06-02T23:47:02.540Z,14.37
2018-06-02T23:49:30.798Z,15.10
2018-06-02T23:51:59.036Z,16.43
2018-06-02T23:54:30.861Z,16.90
2018-06-02T23:56:58.836Z,19.33
2018-06-02T23:59:26.759Z,15.20
